sensor_id;sensor_type;location;lat;lon;timestamp;P1;durP1;ratioP1;P2;durP2;ratioP2
39694;SDS011;25367;-35.352;149.036;2023-02-26T00:01:52;4.78;;;0.60;;
39694;SDS011;25367;-35.352;149.036;2023-02-26T00:04:22;5.53;;;0.80;;
39694;SDS011;25367;-35.352;149.036;2023-02-26T00:06:55;3.00;;;0.80;;
39694;SDS011;25367;-35.352;149.036;2023-02-26T00:09:24;7.47;;;1.30;;
39694;SDS011;25367;-35.352;149.036;2023-02-26T00:11:54;8.50;;;0.80;;
39694;SDS011;25367;-35.352;149.036;2023-02-26T00:14:24;5.35;;;0.98;;
39694;SDS011;25367;-35.352;149.036;2023-02-26T00:16:56;10.07;;;1.48;;
39694;SDS011;25367;-35.352;149.036;2023-02-26T00:22:20;10.57;;;0.98;;
39694;SDS011;25367;-35.352;149.036;2023-02-26T00:24:49;7.78;;;1.35;;
39694;SDS011;25367;-35.352;149.036;2023-02-26T00:27:19;17.00;;;1.77;;
39694;SDS011;25367;-35.352;149.036;2023-02-26T00:29:49;13.13;;;0.98;;
39694;SDS011;25367;-35.352;149.036;2023-02-26T00:32:19;8.65;;;1.13;;
39694;SDS011;25367;-35.352;149.036;2023-02-26T00:34:49;3.92;;;0.90;;
39694;SDS011;25367;-35.352;149.036;2023-02-26T00:37:35;7.97;;;0.90;;
39694;SDS011;25367;-35.352;149.036;2023-02-26T00:40:17;7.22;;;1.00;;
39694;SDS011;25367;-35.352;149.036;2023-02-26T00:42:55;7.38;;;1.15;;
39694;SDS011;25367;-35.352;149.036;2023-02-26T00:45:25;4.10;;;1.05;;
39694;SDS011;25367;-35.352;149.036;2023-02-26T00:47:57;3.38;;;0.98;;
39694;SDS011;25367;-35.352;149.036;2023-02-26T00:50:40;2.90;;;1.00;;
39694;SDS011;25367;-35.352;149.036;2023-02-26T00:53:17;3.92;;;0.93;;
39694;SDS011;25367;-35.352;149.036;2023-02-26T00:55:53;5.00;;;1.15;;
39694;SDS011;25367;-35.352;149.036;2023-02-26T00:58:23;3.33;;;1.05;;
39694;SDS011;25367;-35.352;149.036;2023-02-26T01:00:52;3.53;;;1.02;;
39694;SDS011;25367;-35.352;149.036;2023-02-26T01:03:22;2.75;;;1.08;;
39694;SDS011;25367;-35.352;149.036;2023-02-26T01:05:52;5.90;;;1.40;;
39694;SDS011;25367;-35.352;149.036;2023-02-26T01:08:26;4.07;;;1.35;;
39694;SDS011;25367;-35.352;149.036;2023-02-26T01:11:00;7.55;;;1.35;;
39694;SDS011;25367;-35.352;149.036;2023-02-26T01:13:30;8.80;;;2.05;;
39694;SDS011;25367;-35.352;149.036;2023-02-26T01:16:00;8.52;;;2.05;;
39694;SDS011;25367;-35.352;149.036;2023-02-26T01:18:37;3.95;;;1.10;;
39694;SDS011;25367;-35.352;149.036;2023-02-26T01:21:12;2.25;;;0.75;;
39694;SDS011;25367;-35.352;149.036;2023-02-26T01:23:49;7.43;;;1.60;;
39694;SDS011;25367;-35.352;149.036;2023-02-26T01:26:21;4.65;;;1.27;;
39694;SDS011;25367;-35.352;149.036;2023-02-26T01:28:53;5.97;;;1.05;;
39694;SDS011;25367;-35.352;149.036;2023-02-26T01:31:28;5.00;;;1.00;;
39694;SDS011;25367;-35.352;149.036;2023-02-26T01:34:06;4.07;;;1.20;;
39694;SDS011;25367;-35.352;149.036;2023-02-26T01:36:43;3.65;;;0.88;;
39694;SDS011;25367;-35.352;149.036;2023-02-26T01:39:22;2.78;;;0.90;;
39694;SDS011;25367;-35.352;149.036;2023-02-26T01:41:59;2.72;;;0.80;;
39694;SDS011;25367;-35.352;149.036;2023-02-26T01:44:38;3.35;;;0.85;;
39694;SDS011;25367;-35.352;149.036;2023-02-26T01:47:16;6.72;;;1.02;;
39694;SDS011;25367;-35.352;149.036;2023-02-26T01:49:50;8.82;;;0.95;;
39694;SDS011;25367;-35.352;149.036;2023-02-26T01:55:29;4.65;;;1.27;;
39694;SDS011;25367;-35.352;149.036;2023-02-26T01:57:59;4.18;;;0.75;;
39694;SDS011;25367;-35.352;149.036;2023-02-26T02:00:29;9.65;;;1.00;;
39694;SDS011;25367;-35.352;149.036;2023-02-26T02:03:00;4.88;;;0.90;;
39694;SDS011;25367;-35.352;149.036;2023-02-26T02:05:33;10.75;;;1.30;;
39694;SDS011;25367;-35.352;149.036;2023-02-26T02:08:11;5.70;;;1.02;;
39694;SDS011;25367;-35.352;149.036;2023-02-26T02:10:45;6.57;;;0.98;;
39694;SDS011;25367;-35.352;149.036;2023-02-26T02:16:22;5.20;;;1.15;;
39694;SDS011;25367;-35.352;149.036;2023-02-26T02:18:59;10.15;;;1.63;;
39694;SDS011;25367;-35.352;149.036;2023-02-26T02:24:44;10.05;;;1.52;;
39694;SDS011;25367;-35.352;149.036;2023-02-26T02:27:28;5.10;;;1.23;;
39694;SDS011;25367;-35.352;149.036;2023-02-26T02:30:20;21.42;;;1.23;;
39694;SDS011;25367;-35.352;149.036;2023-02-26T02:32:59;18.02;;;2.13;;
39694;SDS011;25367;-35.352;149.036;2023-02-26T02:35:33;9.30;;;1.40;;
39694;SDS011;25367;-35.352;149.036;2023-02-26T02:38:08;9.75;;;1.33;;
39694;SDS011;25367;-35.352;149.036;2023-02-26T02:40:44;7.97;;;1.05;;
39694;SDS011;25367;-35.352;149.036;2023-02-26T02:43:21;12.85;;;1.20;;
39694;SDS011;25367;-35.352;149.036;2023-02-26T02:45:55;6.05;;;1.02;;
39694;SDS011;25367;-35.352;149.036;2023-02-26T02:48:32;9.60;;;1.33;;
39694;SDS011;25367;-35.352;149.036;2023-02-26T02:51:05;9.25;;;1.23;;
39694;SDS011;25367;-35.352;149.036;2023-02-26T02:53:38;16.30;;;1.83;;
39694;SDS011;25367;-35.352;149.036;2023-02-26T02:56:11;10.52;;;1.05;;
39694;SDS011;25367;-35.352;149.036;2023-02-26T03:01:15;7.65;;;1.30;;
39694;SDS011;25367;-35.352;149.036;2023-02-26T03:03:53;5.18;;;1.45;;
39694;SDS011;25367;-35.352;149.036;2023-02-26T03:06:26;11.10;;;1.40;;
39694;SDS011;25367;-35.352;149.036;2023-02-26T03:08:56;11.05;;;1.40;;
39694;SDS011;25367;-35.352;149.036;2023-02-26T03:11:27;11.02;;;1.40;;
39694;SDS011;25367;-35.352;149.036;2023-02-26T03:13:57;8.35;;;1.65;;
39694;SDS011;25367;-35.352;149.036;2023-02-26T03:16:37;5.55;;;1.30;;
39694;SDS011;25367;-35.352;149.036;2023-02-26T03:19:26;6.93;;;0.75;;
39694;SDS011;25367;-35.352;149.036;2023-02-26T03:22:01;10.68;;;1.20;;
39694;SDS011;25367;-35.352;149.036;2023-02-26T03:24:55;4.97;;;0.93;;
39694;SDS011;25367;-35.352;149.036;2023-02-26T03:27:32;4.35;;;1.25;;
39694;SDS011;25367;-35.352;149.036;2023-02-26T03:30:06;10.05;;;1.58;;
39694;SDS011;25367;-35.352;149.036;2023-02-26T03:32:49;3.70;;;1.08;;
39694;SDS011;25367;-35.352;149.036;2023-02-26T03:35:28;6.10;;;1.00;;
39694;SDS011;25367;-35.352;149.036;2023-02-26T03:38:02;6.25;;;1.30;;
39694;SDS011;25367;-35.352;149.036;2023-02-26T03:40:36;3.15;;;1.20;;
39694;SDS011;25367;-35.352;149.036;2023-02-26T03:43:14;6.72;;;1.20;;
39694;SDS011;25367;-35.352;149.036;2023-02-26T03:45:47;4.88;;;1.10;;
39694;SDS011;25367;-35.352;149.036;2023-02-26T03:48:20;4.03;;;0.95;;
39694;SDS011;25367;-35.352;149.036;2023-02-26T03:50:57;2.97;;;0.82;;
39694;SDS011;25367;-35.352;149.036;2023-02-26T03:54:00;4.13;;;0.90;;
39694;SDS011;25367;-35.352;149.036;2023-02-26T03:56:38;3.33;;;1.05;;
39694;SDS011;25367;-35.352;149.036;2023-02-26T03:59:30;1.63;;;0.70;;
39694;SDS011;25367;-35.352;149.036;2023-02-26T04:02:30;2.60;;;1.02;;
39694;SDS011;25367;-35.352;149.036;2023-02-26T04:05:12;3.95;;;0.98;;
39694;SDS011;25367;-35.352;149.036;2023-02-26T04:07:48;5.78;;;1.00;;
39694;SDS011;25367;-35.352;149.036;2023-02-26T04:10:18;5.97;;;1.17;;
39694;SDS011;25367;-35.352;149.036;2023-02-26T04:12:51;4.65;;;0.90;;
39694;SDS011;25367;-35.352;149.036;2023-02-26T04:15:20;3.75;;;1.63;;
39694;SDS011;25367;-35.352;149.036;2023-02-26T04:17:50;2.35;;;0.80;;
39694;SDS011;25367;-35.352;149.036;2023-02-26T04:20:20;3.38;;;1.00;;
39694;SDS011;25367;-35.352;149.036;2023-02-26T04:22:52;4.60;;;0.77;;
39694;SDS011;25367;-35.352;149.036;2023-02-26T04:25:23;1.90;;;0.90;;
39694;SDS011;25367;-35.352;149.036;2023-02-26T04:27:53;7.68;;;0.90;;
39694;SDS011;25367;-35.352;149.036;2023-02-26T04:30:23;3.10;;;0.80;;
39694;SDS011;25367;-35.352;149.036;2023-02-26T04:32:52;8.93;;;1.00;;
39694;SDS011;25367;-35.352;149.036;2023-02-26T04:35:22;1.55;;;0.63;;
39694;SDS011;25367;-35.352;149.036;2023-02-26T04:37:54;9.80;;;1.15;;
39694;SDS011;25367;-35.352;149.036;2023-02-26T04:40:24;5.80;;;1.20;;
39694;SDS011;25367;-35.352;149.036;2023-02-26T04:42:53;3.78;;;0.88;;
39694;SDS011;25367;-35.352;149.036;2023-02-26T04:45:26;7.25;;;1.05;;
39694;SDS011;25367;-35.352;149.036;2023-02-26T04:47:55;7.55;;;1.20;;
39694;SDS011;25367;-35.352;149.036;2023-02-26T04:50:25;5.22;;;1.23;;
39694;SDS011;25367;-35.352;149.036;2023-02-26T04:52:58;3.75;;;0.80;;
39694;SDS011;25367;-35.352;149.036;2023-02-26T04:55:27;4.25;;;0.85;;
39694;SDS011;25367;-35.352;149.036;2023-02-26T04:57:57;4.60;;;1.05;;
39694;SDS011;25367;-35.352;149.036;2023-02-26T05:00:26;2.70;;;0.60;;
39694;SDS011;25367;-35.352;149.036;2023-02-26T05:02:56;4.70;;;0.80;;
39694;SDS011;25367;-35.352;149.036;2023-02-26T05:05:25;9.30;;;1.58;;
39694;SDS011;25367;-35.352;149.036;2023-02-26T05:07:58;10.18;;;1.15;;
39694;SDS011;25367;-35.352;149.036;2023-02-26T05:12:56;2.80;;;1.00;;
39694;SDS011;25367;-35.352;149.036;2023-02-26T05:15:25;7.10;;;1.13;;
39694;SDS011;25367;-35.352;149.036;2023-02-26T05:17:55;2.53;;;0.68;;
39694;SDS011;25367;-35.352;149.036;2023-02-26T05:20:24;3.22;;;0.95;;
39694;SDS011;25367;-35.352;149.036;2023-02-26T05:22:53;3.70;;;0.68;;
39694;SDS011;25367;-35.352;149.036;2023-02-26T05:25:25;6.13;;;1.10;;
39694;SDS011;25367;-35.352;149.036;2023-02-26T05:27:55;3.78;;;0.88;;
39694;SDS011;25367;-35.352;149.036;2023-02-26T05:30:25;2.97;;;0.80;;
39694;SDS011;25367;-35.352;149.036;2023-02-26T05:32:55;4.30;;;1.00;;
39694;SDS011;25367;-35.352;149.036;2023-02-26T05:35:24;14.18;;;2.40;;
39694;SDS011;25367;-35.352;149.036;2023-02-26T05:37:54;9.73;;;1.10;;
39694;SDS011;25367;-35.352;149.036;2023-02-26T05:40:26;9.02;;;1.00;;
39694;SDS011;25367;-35.352;149.036;2023-02-26T05:42:56;3.25;;;0.80;;
39694;SDS011;25367;-35.352;149.036;2023-02-26T05:45:25;6.05;;;0.95;;
39694;SDS011;25367;-35.352;149.036;2023-02-26T05:47:55;6.88;;;0.90;;
39694;SDS011;25367;-35.352;149.036;2023-02-26T05:50:24;8.57;;;0.90;;
39694;SDS011;25367;-35.352;149.036;2023-02-26T05:52:54;10.98;;;1.00;;
39694;SDS011;25367;-35.352;149.036;2023-02-26T05:55:27;5.15;;;0.93;;
39694;SDS011;25367;-35.352;149.036;2023-02-26T05:57:56;28.90;;;1.80;;
39694;SDS011;25367;-35.352;149.036;2023-02-26T06:00:26;3.80;;;0.95;;
39694;SDS011;25367;-35.352;149.036;2023-02-26T06:02:56;3.40;;;1.10;;
39694;SDS011;25367;-35.352;149.036;2023-02-26T06:05:25;6.15;;;1.00;;
39694;SDS011;25367;-35.352;149.036;2023-02-26T06:07:55;6.50;;;1.42;;
39694;SDS011;25367;-35.352;149.036;2023-02-26T06:10:26;6.95;;;0.80;;
39694;SDS011;25367;-35.352;149.036;2023-02-26T06:12:56;14.00;;;0.95;;
39694;SDS011;25367;-35.352;149.036;2023-02-26T06:15:25;5.35;;;0.65;;
39694;SDS011;25367;-35.352;149.036;2023-02-26T06:17:55;3.47;;;0.88;;
39694;SDS011;25367;-35.352;149.036;2023-02-26T06:20:24;3.58;;;0.90;;
39694;SDS011;25367;-35.352;149.036;2023-02-26T06:22:54;4.95;;;1.00;;
39694;SDS011;25367;-35.352;149.036;2023-02-26T06:25:26;3.70;;;0.80;;
39694;SDS011;25367;-35.352;149.036;2023-02-26T06:27:56;9.77;;;1.00;;
39694;SDS011;25367;-35.352;149.036;2023-02-26T06:30:26;8.27;;;1.35;;
39694;SDS011;25367;-35.352;149.036;2023-02-26T06:32:55;5.30;;;1.05;;
39694;SDS011;25367;-35.352;149.036;2023-02-26T06:35:24;3.80;;;0.82;;
39694;SDS011;25367;-35.352;149.036;2023-02-26T06:37:54;6.75;;;0.55;;
39694;SDS011;25367;-35.352;149.036;2023-02-26T06:40:26;19.17;;;2.05;;
39694;SDS011;25367;-35.352;149.036;2023-02-26T06:42:56;14.75;;;1.65;;
39694;SDS011;25367;-35.352;149.036;2023-02-26T06:45:26;9.30;;;2.80;;
39694;SDS011;25367;-35.352;149.036;2023-02-26T06:47:55;5.25;;;2.75;;
39694;SDS011;25367;-35.352;149.036;2023-02-26T06:50:25;6.57;;;2.67;;
39694;SDS011;25367;-35.352;149.036;2023-02-26T06:52:55;14.13;;;4.68;;
39694;SDS011;25367;-35.352;149.036;2023-02-26T06:55:27;17.00;;;4.32;;
39694;SDS011;25367;-35.352;149.036;2023-02-26T06:57:57;16.75;;;5.15;;
39694;SDS011;25367;-35.352;149.036;2023-02-26T07:00:26;17.50;;;3.85;;
39694;SDS011;25367;-35.352;149.036;2023-02-26T07:02:56;14.18;;;3.97;;
39694;SDS011;25367;-35.352;149.036;2023-02-26T07:05:25;9.55;;;3.30;;
39694;SDS011;25367;-35.352;149.036;2023-02-26T07:07:55;13.30;;;3.97;;
39694;SDS011;25367;-35.352;149.036;2023-02-26T07:10:27;15.00;;;4.10;;
39694;SDS011;25367;-35.352;149.036;2023-02-26T07:12:57;9.52;;;3.10;;
39694;SDS011;25367;-35.352;149.036;2023-02-26T07:15:27;22.08;;;3.75;;
39694;SDS011;25367;-35.352;149.036;2023-02-26T07:17:56;16.98;;;2.90;;
39694;SDS011;25367;-35.352;149.036;2023-02-26T07:20:26;17.63;;;3.50;;
39694;SDS011;25367;-35.352;149.036;2023-02-26T07:22:55;26.25;;;4.10;;
39694;SDS011;25367;-35.352;149.036;2023-02-26T07:25:28;11.13;;;2.83;;
39694;SDS011;25367;-35.352;149.036;2023-02-26T07:27:58;26.02;;;3.47;;
39694;SDS011;25367;-35.352;149.036;2023-02-26T07:30:28;11.38;;;2.53;;
39694;SDS011;25367;-35.352;149.036;2023-02-26T07:32:57;14.45;;;2.40;;
39694;SDS011;25367;-35.352;149.036;2023-02-26T07:35:26;11.70;;;2.55;;
39694;SDS011;25367;-35.352;149.036;2023-02-26T07:37:56;10.35;;;2.75;;
39694;SDS011;25367;-35.352;149.036;2023-02-26T07:40:27;9.93;;;2.72;;
39694;SDS011;25367;-35.352;149.036;2023-02-26T07:42:57;10.15;;;2.60;;
39694;SDS011;25367;-35.352;149.036;2023-02-26T07:45:26;9.15;;;2.58;;
39694;SDS011;25367;-35.352;149.036;2023-02-26T07:47:55;9.75;;;2.30;;
39694;SDS011;25367;-35.352;149.036;2023-02-26T07:50:25;8.35;;;2.17;;
39694;SDS011;25367;-35.352;149.036;2023-02-26T07:52:54;7.10;;;2.30;;
39694;SDS011;25367;-35.352;149.036;2023-02-26T07:55:23;11.48;;;2.08;;
39694;SDS011;25367;-35.352;149.036;2023-02-26T07:57:55;5.45;;;2.13;;
39694;SDS011;25367;-35.352;149.036;2023-02-26T08:00:25;14.18;;;3.05;;
39694;SDS011;25367;-35.352;149.036;2023-02-26T08:02:54;6.45;;;1.95;;
39694;SDS011;25367;-35.352;149.036;2023-02-26T08:05:23;9.93;;;1.75;;
39694;SDS011;25367;-35.352;149.036;2023-02-26T08:07:53;10.13;;;1.88;;
39694;SDS011;25367;-35.352;149.036;2023-02-26T08:10:22;7.57;;;2.55;;
39694;SDS011;25367;-35.352;149.036;2023-02-26T08:12:52;12.10;;;2.70;;
39694;SDS011;25367;-35.352;149.036;2023-02-26T08:15:24;15.10;;;2.28;;
39694;SDS011;25367;-35.352;149.036;2023-02-26T08:17:53;8.75;;;1.90;;
39694;SDS011;25367;-35.352;149.036;2023-02-26T08:20:22;8.65;;;1.85;;
39694;SDS011;25367;-35.352;149.036;2023-02-26T08:22:52;7.72;;;1.95;;
39694;SDS011;25367;-35.352;149.036;2023-02-26T08:25:21;11.32;;;2.17;;
39694;SDS011;25367;-35.352;149.036;2023-02-26T08:27:50;10.65;;;2.10;;
39694;SDS011;25367;-35.352;149.036;2023-02-26T08:30:23;6.90;;;1.92;;
39694;SDS011;25367;-35.352;149.036;2023-02-26T08:32:53;10.43;;;2.22;;
39694;SDS011;25367;-35.352;149.036;2023-02-26T08:35:22;8.52;;;2.38;;
39694;SDS011;25367;-35.352;149.036;2023-02-26T08:37:51;4.82;;;1.27;;
39694;SDS011;25367;-35.352;149.036;2023-02-26T08:40:21;8.63;;;1.45;;
39694;SDS011;25367;-35.352;149.036;2023-02-26T08:42:50;6.40;;;1.60;;
39694;SDS011;25367;-35.352;149.036;2023-02-26T08:45:23;4.43;;;1.23;;
39694;SDS011;25367;-35.352;149.036;2023-02-26T08:47:52;7.60;;;1.52;;
39694;SDS011;25367;-35.352;149.036;2023-02-26T08:50:21;6.97;;;1.45;;
39694;SDS011;25367;-35.352;149.036;2023-02-26T08:52:51;5.90;;;1.42;;
39694;SDS011;25367;-35.352;149.036;2023-02-26T08:55:21;3.72;;;1.55;;
39694;SDS011;25367;-35.352;149.036;2023-02-26T08:57:50;4.03;;;1.20;;
39694;SDS011;25367;-35.352;149.036;2023-02-26T09:00:22;5.18;;;1.65;;
39694;SDS011;25367;-35.352;149.036;2023-02-26T09:02:51;5.03;;;1.08;;
39694;SDS011;25367;-35.352;149.036;2023-02-26T09:05:21;5.28;;;1.52;;
39694;SDS011;25367;-35.352;149.036;2023-02-26T09:07:50;4.25;;;1.40;;
39694;SDS011;25367;-35.352;149.036;2023-02-26T09:10:20;4.85;;;1.08;;
39694;SDS011;25367;-35.352;149.036;2023-02-26T09:12:49;5.30;;;1.38;;
39694;SDS011;25367;-35.352;149.036;2023-02-26T09:15:19;6.35;;;1.33;;
39694;SDS011;25367;-35.352;149.036;2023-02-26T09:17:52;5.40;;;1.50;;
39694;SDS011;25367;-35.352;149.036;2023-02-26T09:20:22;2.67;;;0.85;;
39694;SDS011;25367;-35.352;149.036;2023-02-26T09:22:51;3.65;;;1.00;;
39694;SDS011;25367;-35.352;149.036;2023-02-26T09:25:21;7.20;;;0.93;;
39694;SDS011;25367;-35.352;149.036;2023-02-26T09:27:50;4.10;;;1.15;;
39694;SDS011;25367;-35.352;149.036;2023-02-26T09:30:20;5.13;;;0.90;;
39694;SDS011;25367;-35.352;149.036;2023-02-26T09:32:52;6.20;;;1.25;;
39694;SDS011;25367;-35.352;149.036;2023-02-26T09:35:22;4.93;;;1.05;;
39694;SDS011;25367;-35.352;149.036;2023-02-26T09:37:52;9.05;;;1.23;;
39694;SDS011;25367;-35.352;149.036;2023-02-26T09:40:23;5.43;;;1.98;;
39694;SDS011;25367;-35.352;149.036;2023-02-26T09:43:02;2.75;;;0.75;;
39694;SDS011;25367;-35.352;149.036;2023-02-26T09:45:45;5.40;;;1.00;;
39694;SDS011;25367;-35.352;149.036;2023-02-26T09:48:18;8.70;;;1.27;;
39694;SDS011;25367;-35.352;149.036;2023-02-26T09:50:51;6.90;;;1.33;;
39694;SDS011;25367;-35.352;149.036;2023-02-26T09:53:23;5.22;;;1.00;;
39694;SDS011;25367;-35.352;149.036;2023-02-26T09:55:55;4.40;;;1.08;;
39694;SDS011;25367;-35.352;149.036;2023-02-26T09:58:28;2.33;;;0.55;;
39694;SDS011;25367;-35.352;149.036;2023-02-26T10:01:03;10.93;;;0.77;;
39694;SDS011;25367;-35.352;149.036;2023-02-26T10:06:31;1.52;;;0.60;;
39694;SDS011;25367;-35.352;149.036;2023-02-26T10:09:14;3.50;;;0.90;;
39694;SDS011;25367;-35.352;149.036;2023-02-26T10:11:54;4.50;;;0.88;;
39694;SDS011;25367;-35.352;149.036;2023-02-26T10:14:27;3.55;;;0.80;;
39694;SDS011;25367;-35.352;149.036;2023-02-26T10:17:06;4.90;;;1.08;;
39694;SDS011;25367;-35.352;149.036;2023-02-26T10:19:43;3.40;;;0.75;;
39694;SDS011;25367;-35.352;149.036;2023-02-26T10:22:18;3.30;;;1.00;;
39694;SDS011;25367;-35.352;149.036;2023-02-26T10:24:54;3.35;;;0.70;;
39694;SDS011;25367;-35.352;149.036;2023-02-26T10:27:35;3.63;;;0.68;;
39694;SDS011;25367;-35.352;149.036;2023-02-26T10:30:18;3.40;;;0.80;;
39694;SDS011;25367;-35.352;149.036;2023-02-26T10:33:00;3.75;;;0.75;;
39694;SDS011;25367;-35.352;149.036;2023-02-26T10:35:41;2.03;;;0.75;;
39694;SDS011;25367;-35.352;149.036;2023-02-26T10:38:18;3.97;;;0.70;;
39694;SDS011;25367;-35.352;149.036;2023-02-26T10:40:52;4.65;;;1.17;;
39694;SDS011;25367;-35.352;149.036;2023-02-26T10:43:26;0.85;;;0.50;;
39694;SDS011;25367;-35.352;149.036;2023-02-26T10:46:06;2.63;;;0.73;;
39694;SDS011;25367;-35.352;149.036;2023-02-26T10:48:58;3.15;;;0.90;;
39694;SDS011;25367;-35.352;149.036;2023-02-26T10:51:41;2.70;;;1.40;;
39694;SDS011;25367;-35.352;149.036;2023-02-26T10:54:14;2.00;;;0.70;;
39694;SDS011;25367;-35.352;149.036;2023-02-26T10:56:48;2.45;;;0.60;;
39694;SDS011;25367;-35.352;149.036;2023-02-26T10:59:17;3.05;;;0.65;;
39694;SDS011;25367;-35.352;149.036;2023-02-26T11:01:47;3.25;;;0.75;;
39694;SDS011;25367;-35.352;149.036;2023-02-26T11:04:20;6.43;;;1.00;;
39694;SDS011;25367;-35.352;149.036;2023-02-26T11:06:51;7.80;;;0.70;;
39694;SDS011;25367;-35.352;149.036;2023-02-26T11:09:24;5.47;;;0.95;;
39694;SDS011;25367;-35.352;149.036;2023-02-26T11:11:55;3.20;;;0.70;;
39694;SDS011;25367;-35.352;149.036;2023-02-26T11:14:32;8.10;;;0.98;;
39694;SDS011;25367;-35.352;149.036;2023-02-26T11:19:37;2.60;;;0.85;;
39694;SDS011;25367;-35.352;149.036;2023-02-26T11:22:10;3.15;;;0.82;;
39694;SDS011;25367;-35.352;149.036;2023-02-26T11:24:42;3.88;;;0.52;;
39694;SDS011;25367;-35.352;149.036;2023-02-26T11:27:13;11.52;;;0.95;;
39694;SDS011;25367;-35.352;149.036;2023-02-26T11:29:46;3.03;;;0.55;;
39694;SDS011;25367;-35.352;149.036;2023-02-26T11:32:21;3.72;;;0.85;;
39694;SDS011;25367;-35.352;149.036;2023-02-26T11:34:59;5.72;;;0.98;;
39694;SDS011;25367;-35.352;149.036;2023-02-26T11:37:29;1.98;;;0.80;;
39694;SDS011;25367;-35.352;149.036;2023-02-26T11:42:34;4.03;;;0.77;;
39694;SDS011;25367;-35.352;149.036;2023-02-26T11:45:11;7.07;;;0.80;;
39694;SDS011;25367;-35.352;149.036;2023-02-26T11:47:43;3.53;;;1.05;;
39694;SDS011;25367;-35.352;149.036;2023-02-26T11:50:16;4.57;;;0.90;;
39694;SDS011;25367;-35.352;149.036;2023-02-26T11:52:53;8.93;;;0.85;;
39694;SDS011;25367;-35.352;149.036;2023-02-26T11:55:26;2.38;;;0.80;;
39694;SDS011;25367;-35.352;149.036;2023-02-26T11:57:58;4.45;;;0.80;;
39694;SDS011;25367;-35.352;149.036;2023-02-26T12:00:29;1.80;;;0.60;;
39694;SDS011;25367;-35.352;149.036;2023-02-26T12:03:02;3.90;;;0.70;;
39694;SDS011;25367;-35.352;149.036;2023-02-26T12:05:36;2.42;;;0.68;;
39694;SDS011;25367;-35.352;149.036;2023-02-26T12:08:07;4.18;;;0.85;;
39694;SDS011;25367;-35.352;149.036;2023-02-26T12:10:47;1.92;;;0.55;;
39694;SDS011;25367;-35.352;149.036;2023-02-26T12:13:28;5.75;;;1.02;;
39694;SDS011;25367;-35.352;149.036;2023-02-26T12:16:05;4.97;;;0.90;;
39694;SDS011;25367;-35.352;149.036;2023-02-26T12:18:53;3.75;;;1.05;;
39694;SDS011;25367;-35.352;149.036;2023-02-26T12:21:40;3.50;;;0.80;;
39694;SDS011;25367;-35.352;149.036;2023-02-26T12:24:38;2.17;;;0.70;;
39694;SDS011;25367;-35.352;149.036;2023-02-26T12:27:19;3.15;;;1.17;;
39694;SDS011;25367;-35.352;149.036;2023-02-26T12:30:01;6.35;;;0.80;;
39694;SDS011;25367;-35.352;149.036;2023-02-26T12:32:39;5.97;;;0.88;;
39694;SDS011;25367;-35.352;149.036;2023-02-26T12:35:40;3.75;;;0.82;;
39694;SDS011;25367;-35.352;149.036;2023-02-26T12:38:23;2.88;;;0.77;;
39694;SDS011;25367;-35.352;149.036;2023-02-26T12:41:14;3.30;;;0.93;;
39694;SDS011;25367;-35.352;149.036;2023-02-26T12:43:54;4.55;;;1.30;;
39694;SDS011;25367;-35.352;149.036;2023-02-26T12:46:32;1.48;;;0.65;;
39694;SDS011;25367;-35.352;149.036;2023-02-26T12:49:22;2.28;;;0.50;;
39694;SDS011;25367;-35.352;149.036;2023-02-26T12:52:13;2.13;;;0.50;;
39694;SDS011;25367;-35.352;149.036;2023-02-26T12:55:18;2.10;;;0.65;;
39694;SDS011;25367;-35.352;149.036;2023-02-26T12:58:06;1.75;;;0.60;;
39694;SDS011;25367;-35.352;149.036;2023-02-26T13:00:52;1.02;;;0.35;;
39694;SDS011;25367;-35.352;149.036;2023-02-26T13:03:45;3.47;;;0.50;;
39694;SDS011;25367;-35.352;149.036;2023-02-26T13:09:53;1.65;;;0.60;;
39694;SDS011;25367;-35.352;149.036;2023-02-26T13:12:38;4.15;;;0.60;;
39694;SDS011;25367;-35.352;149.036;2023-02-26T13:15:18;2.45;;;0.50;;
39694;SDS011;25367;-35.352;149.036;2023-02-26T13:18:05;3.75;;;0.70;;
39694;SDS011;25367;-35.352;149.036;2023-02-26T13:20:38;3.40;;;0.70;;
39694;SDS011;25367;-35.352;149.036;2023-02-26T13:23:13;1.27;;;0.40;;
39694;SDS011;25367;-35.352;149.036;2023-02-26T13:28:19;2.13;;;0.55;;
39694;SDS011;25367;-35.352;149.036;2023-02-26T13:30:52;1.00;;;0.45;;
39694;SDS011;25367;-35.352;149.036;2023-02-26T13:33:23;1.48;;;0.68;;
39694;SDS011;25367;-35.352;149.036;2023-02-26T13:35:57;0.75;;;0.30;;
39694;SDS011;25367;-35.352;149.036;2023-02-26T13:38:31;1.85;;;0.50;;
39694;SDS011;25367;-35.352;149.036;2023-02-26T13:41:08;1.55;;;0.50;;
39694;SDS011;25367;-35.352;149.036;2023-02-26T13:43:57;1.63;;;0.50;;
39694;SDS011;25367;-35.352;149.036;2023-02-26T13:46:38;2.03;;;0.40;;
39694;SDS011;25367;-35.352;149.036;2023-02-26T13:49:26;1.65;;;0.63;;
39694;SDS011;25367;-35.352;149.036;2023-02-26T13:52:02;0.50;;;0.30;;
39694;SDS011;25367;-35.352;149.036;2023-02-26T13:54:40;0.88;;;0.30;;
39694;SDS011;25367;-35.352;149.036;2023-02-26T13:57:24;1.55;;;0.38;;
39694;SDS011;25367;-35.352;149.036;2023-02-26T14:00:09;1.83;;;0.57;;
39694;SDS011;25367;-35.352;149.036;2023-02-26T14:02:52;2.97;;;0.70;;
39694;SDS011;25367;-35.352;149.036;2023-02-26T14:05:33;2.70;;;0.40;;
39694;SDS011;25367;-35.352;149.036;2023-02-26T14:14:12;1.63;;;0.70;;
39694;SDS011;25367;-35.352;149.036;2023-02-26T14:17:17;2.45;;;0.65;;
39694;SDS011;25367;-35.352;149.036;2023-02-26T14:23:21;2.45;;;0.60;;
39694;SDS011;25367;-35.352;149.036;2023-02-26T14:26:04;2.30;;;0.68;;
39694;SDS011;25367;-35.352;149.036;2023-02-26T14:28:42;1.80;;;0.50;;
39694;SDS011;25367;-35.352;149.036;2023-02-26T14:31:21;1.73;;;0.40;;
39694;SDS011;25367;-35.352;149.036;2023-02-26T14:34:12;1.58;;;0.60;;
39694;SDS011;25367;-35.352;149.036;2023-02-26T14:36:44;1.75;;;0.50;;
39694;SDS011;25367;-35.352;149.036;2023-02-26T14:39:21;4.63;;;0.50;;
39694;SDS011;25367;-35.352;149.036;2023-02-26T14:41:59;3.13;;;0.55;;
39694;SDS011;25367;-35.352;149.036;2023-02-26T14:44:33;1.77;;;0.52;;
39694;SDS011;25367;-35.352;149.036;2023-02-26T14:47:06;0.30;;;0.25;;
39694;SDS011;25367;-35.352;149.036;2023-02-26T14:49:39;2.55;;;0.60;;
39694;SDS011;25367;-35.352;149.036;2023-02-26T14:52:18;0.75;;;0.40;;
39694;SDS011;25367;-35.352;149.036;2023-02-26T14:55:01;0.77;;;0.45;;
39694;SDS011;25367;-35.352;149.036;2023-02-26T14:57:49;0.90;;;0.65;;
39694;SDS011;25367;-35.352;149.036;2023-02-26T15:00:30;1.40;;;0.70;;
39694;SDS011;25367;-35.352;149.036;2023-02-26T15:06:13;1.65;;;0.45;;
39694;SDS011;25367;-35.352;149.036;2023-02-26T15:08:56;1.30;;;0.40;;
39694;SDS011;25367;-35.352;149.036;2023-02-26T15:11:36;1.65;;;0.60;;
39694;SDS011;25367;-35.352;149.036;2023-02-26T15:14:27;7.13;;;0.98;;
39694;SDS011;25367;-35.352;149.036;2023-02-26T15:17:12;1.60;;;0.60;;
39694;SDS011;25367;-35.352;149.036;2023-02-26T15:19:54;1.38;;;0.57;;
39694;SDS011;25367;-35.352;149.036;2023-02-26T15:22:37;0.75;;;0.43;;
39694;SDS011;25367;-35.352;149.036;2023-02-26T15:25:15;2.97;;;0.82;;
39694;SDS011;25367;-35.352;149.036;2023-02-26T15:27:52;2.47;;;0.75;;
39694;SDS011;25367;-35.352;149.036;2023-02-26T15:30:22;1.02;;;0.60;;
39694;SDS011;25367;-35.352;149.036;2023-02-26T15:32:55;3.35;;;0.70;;